Terminal Aerodrome Forecast
Issued by NWS

Home | Current Version | Previous Version | Text Only | Print | Product List | Glossary On
Versions: 1 2 3 4 5 6 7 8 9 10 11 12 13 14 15 16 17 18 19 20 21 22 23 24 25 26
000
FTUS44 KLIX 121739
TAFHDC
TAF
KHDC 121739Z 1218/1318 29012G18KT P6SM FEW020 SCT025 BKN035
     FM122000 29009KT P6SM FEW025 BKN035
     FM130200 36004KT P6SM SKC
     FM131500 04008KT P6SM SKC=

USA.gov is the U.S. government's official web portal to all federal, state and local government web resources and services.